Friday, August 28, 2015

  Over 48,494,314 pages visited!

GMT:
14:41
PACIFIC:
7:41:53 AM
MOUNTAIN:
8:41:53 AM

CENTRAL:
9:41:53 AM

EASTERN:
10:41:53 AM
ATLANTIC:
11:41:53 AM
NEWFOUNDLAND:
12:11:53 PM
 

 


Watches/Warnings
Current Conditions
Radar/Satellite
Lightning Images


Current Weather Conditions For TORONTO PEARSON,ON

 


A Few Clouds
 

Temperature: 17�C / 63�F
Dew Point: 11 �C / 52�F
Humidity: 68 %
Pressure: 1023.3 mbs (30.22 inches)
Visibility: 24.1 kms (15 SM)
Wind Direction: WNW (300�)
Wind Speed: 7.4 Km/h (4.6 MPH)
Max Wind Gust: No Gusts
Humidex: N/A
WindChill: N/A
    

Observation Information

Date/Time: Friday, August 28, 2015 @ 14:00Z
Local Time:
Metar Coded: CYYZ 281400Z 30004KT 270V350 15SM FEW035 FEW080 17/11 A3022 RMK CU1AC1 SLP233 DENSITY ALT 600FT

 

 

                   1997-2015 The Ontario Weather Page